Airfield :
LOGIN :

Register | Disclaimer

   EN    FR    IT 

 










Legend :    VFR   Marginal VFR   IFR   Intensive IFR   Very Intensive IFR
Visi :
Ceiling :
>= 8 km
>= 3000ft
5 to 8 km
1000 to 3000 ft
1500m to 5 km
500 to 1000 ft
800 to 1500m
200 to 500 ft
< 800m
< 200 ft
Symbols :   Thunderstorms  Fog  Heavy snow  Heavy precipitations  Wind > 20 kt
SIGMETs :     Misc.  Thunderstorms  Icing  Turbulence  Mountain Waves  Volcanic Ashes






- Airport Elevation : 1090 ft
- IATA code : CFE


LFLC - Clermont-Ferrand Auvergne

CURRENT METAR :
  • 011500Z AUTO 29004KT 250V330 9999 FEW048 BKN074 OVC088 21/11 Q1014 TEMPO 4000 SHRA SCT035CB

EXPIRED METARs :
  • 011430Z AUTO 30004KT 260V360 CAVOK 20/10 Q1014 TEMPO 4000 SHRA SCT035CB
  • 011400Z AUTO 29007KT 250V330 9999 FEW050 SCT092 22/10 Q1014 TEMPO 4000 SHRA SCT035CB
  • 011330Z AUTO 32006KT 290V360 9999 SCT044/// BKN052/// BKN068/// ///CB 20/12 Q1014 TEMPO 4000 SHRA
  • 011300Z AUTO VRB03KT 9999 FEW047 SCT058 BKN082 21/11 Q1014 TEMPO 4000 SHRA SCT035CB
  • 011230Z AUTO VRB03KT CAVOK 21/12 Q1014 TEMPO 4000 SHRA SCT035CB

TAF TAF LFLC
Valid from the 01 at 12:00 until the 02 at 12:00 UTC


011100Z 0112/0212 VRB02KT 9999 SCT033 BKN060
TEMPO 0112/0120 34012KT 4000 SHRA BKN040TCU
PROB40
TEMPO 0112/0118 SCT035CB
PROB40
TEMPO 0205/0207 BKN014
PROB40
TEMPO 0210/0212 -SHRA SCT050TCU
ATIS : +33 4 73 62 74 38



MET'MAP, your aeronautical weather chart ! - Copyright ORBIFLY December 2007 - Disclaimer

ORBIFLY MET'MAP TEAM :

Programming & Development : Alexandra Zaïnal
Concept & original design : Baudouin d'Aumeries
Assistance for programming : Marc-Olivier Méhu
Technical & hardware support : Manuel Goepfert

Contact : metmap@orbifly.com




SOURCES & CREDITS :

   NOAA